GEC8754 KMIA-CYUL
Flight info
| Callsign | GEC8754 |
|---|---|
| Flight time | N/A |
| Altitude | 34000 |
| Route | FOLZZ3 ALYRA DCT GRUBR/N0481F330 Y299 SEELO DCT WAALT/N0476F350 Q131 EARZZ DCT JAMIE Q133 PBERG CARTR5 |
| Aircraft | B77L/H-SDE1E2E3FGHIJ2J3J4J5M1RWXY/LB1D1 |
Departure
| Time | 2026-05-04 01:25 |
|---|---|
| Airport | Miami International Airport (KMIA) |
Arrival
| Time | N/A |
|---|---|
| Airport | Montreal / Pierre Elliott Trudeau International Airport (CYUL) |
| Time | Latitude | Longitude | Altitude | Speed | Heading |
|---|---|---|---|---|---|
| 2026-05-04 01:02 | 25.79218 | -80.29378 | 22 ft | 0 kts | 208° |
| 2026-05-04 01:16 | 25.79228 | -80.29372 | 22 ft | 4 kts | 208° |
| 2026-05-04 01:16 | 25.79251 | -80.29357 | 25 ft | 4 kts | 206° |
| 2026-05-04 01:16 | 25.79273 | -80.29346 | 25 ft | 4 kts | 224° |
| 2026-05-04 01:16 | 25.79283 | -80.29329 | 25 ft | 4 kts | 264° |
| 2026-05-04 01:17 | 25.79279 | -80.29306 | 24 ft | 4 kts | 297° |
| 2026-05-04 01:17 | 25.79271 | -80.29289 | 24 ft | 1 kts | 300° |
| 2026-05-04 01:20 | 25.79271 | -80.29290 | 25 ft | 2 kts | 300° |
| 2026-05-04 01:20 | 25.79308 | -80.29361 | 25 ft | 16 kts | 299° |
| 2026-05-04 01:20 | 25.79368 | -80.29443 | 27 ft | 14 kts | 334° |
| 2026-05-04 01:21 | 25.79464 | -80.29457 | 24 ft | 14 kts | 358° |
| 2026-05-04 01:21 | 25.79570 | -80.29459 | 23 ft | 17 kts | 360° |
| 2026-05-04 01:21 | 25.79680 | -80.29505 | 24 ft | 17 kts | 313° |
| 2026-05-04 01:21 | 25.79744 | -80.29619 | 19 ft | 18 kts | 299° |
| 2026-05-04 01:22 | 25.79806 | -80.29741 | 17 ft | 18 kts | 300° |
| 2026-05-04 01:22 | 25.79868 | -80.29863 | 18 ft | 18 kts | 299° |
| 2026-05-04 01:22 | 25.79899 | -80.29942 | 19 ft | 0 kts | 289° |
| 2026-05-04 01:22 | 25.79913 | -80.29961 | 18 ft | 3 kts | 308° |
| 2026-05-04 01:23 | 25.79925 | -80.29980 | 19 ft | 5 kts | 303° |
| 2026-05-04 01:23 | 25.79962 | -80.30048 | 18 ft | 12 kts | 300° |
| 2026-05-04 01:23 | 25.80014 | -80.30117 | 20 ft | 11 kts | 337° |
| 2026-05-04 01:23 | 25.80062 | -80.30122 | 20 ft | 6 kts | 29° |
| 2026-05-04 01:24 | 25.80072 | -80.30073 | 19 ft | 11 kts | 85° |
| 2026-05-04 01:24 | 25.80084 | -80.29804 | 18 ft | 68 kts | 87° |
| 2026-05-04 01:24 | 25.80117 | -80.29039 | 26 ft | 131 kts | 87° |
| 2026-05-04 01:24 | 25.80169 | -80.27824 | 33 ft | 180 kts | 86° |
| 2026-05-04 01:25 | 25.80228 | -80.26446 | 605 ft | 173 kts | 85° |
| 2026-05-04 01:25 | 25.80279 | -80.25053 | 981 ft | 186 kts | 92° |
| 2026-05-04 01:25 | 25.79889 | -80.23669 | 1353 ft | 192 kts | 120° |
| 2026-05-04 01:25 | 25.79195 | -80.22436 | 1943 ft | 191 kts | 123° |
| 2026-05-04 01:26 | 25.78425 | -80.21151 | 2221 ft | 207 kts | 123° |
| 2026-05-04 01:26 | 25.77636 | -80.19747 | 2525 ft | 223 kts | 121° |
| 2026-05-04 01:26 | 25.76828 | -80.18181 | 2734 ft | 245 kts | 119° |
| 2026-05-04 01:26 | 25.75996 | -80.16464 | 3157 ft | 259 kts | 119° |
| 2026-05-04 01:27 | 25.75125 | -80.14671 | 3705 ft | 269 kts | 120° |
| 2026-05-04 01:27 | 25.74316 | -80.12775 | 4237 ft | 277 kts | 105° |
| 2026-05-04 01:27 | 25.74287 | -80.10624 | 4785 ft | 285 kts | 74° |
| 2026-05-04 01:27 | 25.75193 | -80.08707 | 5004 ft | 286 kts | 50° |
| 2026-05-04 01:28 | 25.76491 | -80.07030 | 5004 ft | 289 kts | 47° |
| 2026-05-04 01:28 | 25.77837 | -80.05356 | 4996 ft | 288 kts | 47° |
| 2026-05-04 01:28 | 25.79168 | -80.03709 | 4986 ft | 285 kts | 47° |
| 2026-05-04 01:28 | 25.80484 | -80.02074 | 4990 ft | 284 kts | 47° |
| 2026-05-04 01:29 | 25.81797 | -80.00434 | 4996 ft | 285 kts | 47° |
| 2026-05-04 01:29 | 25.83116 | -79.98779 | 5120 ft | 286 kts | 47° |
| 2026-05-04 01:29 | 25.84433 | -79.97119 | 5792 ft | 289 kts | 47° |
| 2026-05-04 01:29 | 25.85775 | -79.95423 | 6465 ft | 294 kts | 47° |
| 2026-05-04 01:30 | 25.87138 | -79.93697 | 7102 ft | 298 kts | 47° |
| 2026-05-04 01:30 | 25.88492 | -79.91979 | 7763 ft | 301 kts | 47° |
| 2026-05-04 01:30 | 25.89876 | -79.90220 | 8420 ft | 304 kts | 47° |
| 2026-05-04 01:30 | 25.91272 | -79.88445 | 9103 ft | 306 kts | 47° |
| 2026-05-04 01:31 | 25.92684 | -79.86648 | 9763 ft | 310 kts | 47° |
| 2026-05-04 01:31 | 25.94109 | -79.84834 | 10325 ft | 316 kts | 47° |
| 2026-05-04 01:31 | 25.95601 | -79.82937 | 10529 ft | 338 kts | 47° |
| 2026-05-04 01:31 | 25.97199 | -79.80903 | 10697 ft | 360 kts | 47° |
| 2026-05-04 01:32 | 25.98899 | -79.78736 | 10872 ft | 382 kts | 47° |
| 2026-05-04 01:32 | 26.00686 | -79.76455 | 11230 ft | 397 kts | 47° |
| 2026-05-04 01:32 | 26.01896 | -79.74908 | 11589 ft | 404 kts | 47° |
| 2026-05-04 01:32 | 26.03758 | -79.72526 | 12231 ft | 411 kts | 47° |
| 2026-05-04 01:33 | 26.05645 | -79.70112 | 13027 ft | 415 kts | 47° |
| 2026-05-04 01:33 | 26.07550 | -79.67674 | 13781 ft | 420 kts | 47° |
| 2026-05-04 01:33 | 26.09480 | -79.65206 | 14418 ft | 426 kts | 47° |
| 2026-05-04 01:33 | 26.11415 | -79.62677 | 15021 ft | 432 kts | 50° |
| 2026-05-04 01:34 | 26.13219 | -79.59972 | 15642 ft | 438 kts | 54° |
| 2026-05-04 01:34 | 26.14957 | -79.57159 | 16259 ft | 444 kts | 54° |
| 2026-05-04 01:34 | 26.16707 | -79.54286 | 16865 ft | 449 kts | 54° |
| 2026-05-04 01:34 | 26.18483 | -79.51401 | 17470 ft | 455 kts | 54° |
| 2026-05-04 01:35 | 26.20303 | -79.48489 | 18052 ft | 460 kts | 53° |
| 2026-05-04 01:35 | 26.22160 | -79.45549 | 18595 ft | 466 kts | 53° |
| 2026-05-04 01:35 | 26.24013 | -79.42628 | 19105 ft | 470 kts | 53° |
| 2026-05-04 01:35 | 26.25931 | -79.39603 | 19637 ft | 474 kts | 53° |
| 2026-05-04 01:36 | 26.27825 | -79.36622 | 20137 ft | 477 kts | 52° |
| 2026-05-04 01:36 | 26.30046 | -79.33869 | 20521 ft | 479 kts | 35° |
| 2026-05-04 01:36 | 26.32795 | -79.31808 | 20934 ft | 477 kts | 27° |
| 2026-05-04 01:36 | 26.35646 | -79.29875 | 21382 ft | 482 kts | 27° |
| 2026-05-04 01:37 | 26.38529 | -79.27926 | 21912 ft | 485 kts | 27° |
| 2026-05-04 01:37 | 26.41415 | -79.25949 | 22445 ft | 489 kts | 27° |
| 2026-05-04 01:37 | 26.43701 | -79.24361 | 22842 ft | 492 kts | 28° |
| 2026-05-04 01:37 | 26.46329 | -79.22512 | 23270 ft | 496 kts | 28° |
| 2026-05-04 01:38 | 26.49262 | -79.20431 | 23693 ft | 501 kts | 28° |
| 2026-05-04 01:38 | 26.52217 | -79.18320 | 24077 ft | 504 kts | 28° |
| 2026-05-04 01:38 | 26.55186 | -79.16194 | 24480 ft | 508 kts | 28° |
| 2026-05-04 01:38 | 26.58172 | -79.14052 | 24885 ft | 511 kts | 28° |
| 2026-05-04 01:39 | 26.61141 | -79.11924 | 25284 ft | 514 kts | 28° |
| 2026-05-04 01:39 | 26.64180 | -79.09746 | 25675 ft | 517 kts | 28° |
| 2026-05-04 01:39 | 26.67227 | -79.07563 | 26059 ft | 521 kts | 28° |
| 2026-05-04 01:39 | 26.70288 | -79.05369 | 26443 ft | 525 kts | 28° |
| 2026-05-04 01:40 | 26.73378 | -79.03153 | 26841 ft | 527 kts | 28° |
| 2026-05-04 01:40 | 26.76437 | -79.00957 | 27229 ft | 530 kts | 28° |
| 2026-05-04 01:40 | 26.79537 | -78.98730 | 27598 ft | 534 kts | 28° |
| 2026-05-04 01:40 | 26.82681 | -78.96471 | 27960 ft | 537 kts | 28° |
| 2026-05-04 01:41 | 26.85835 | -78.94203 | 28315 ft | 540 kts | 28° |
| 2026-05-04 01:41 | 26.89018 | -78.91911 | 28670 ft | 543 kts | 28° |
| 2026-05-04 01:41 | 26.92211 | -78.89612 | 29003 ft | 546 kts | 28° |
| 2026-05-04 01:41 | 26.95382 | -78.87326 | 29339 ft | 549 kts | 28° |
| 2026-05-04 01:42 | 26.98600 | -78.85004 | 29746 ft | 550 kts | 28° |
| 2026-05-04 01:42 | 27.01822 | -78.82678 | 30222 ft | 549 kts | 28° |
| 2026-05-04 01:42 | 27.05045 | -78.80349 | 30631 ft | 549 kts | 28° |
| 2026-05-04 01:42 | 27.08265 | -78.78021 | 31013 ft | 550 kts | 28° |
| 2026-05-04 01:43 | 27.11491 | -78.75688 | 31368 ft | 550 kts | 28° |
| 2026-05-04 01:43 | 27.14720 | -78.73352 | 31735 ft | 551 kts | 28° |
| 2026-05-04 01:43 | 27.17900 | -78.71048 | 32101 ft | 551 kts | 28° |
| 2026-05-04 01:43 | 27.21138 | -78.68701 | 32458 ft | 552 kts | 28° |
| 2026-05-04 01:44 | 27.24361 | -78.66364 | 32803 ft | 553 kts | 28° |
| 2026-05-04 01:44 | 27.27662 | -78.64120 | 32982 ft | 550 kts | 20° |
| 2026-05-04 01:44 | 27.31182 | -78.62700 | 33026 ft | 538 kts | 3° |
| 2026-05-04 01:45 | 27.38540 | -78.61845 | 33048 ft | 531 kts | 357° |
| 2026-05-04 01:45 | 27.49585 | -78.60611 | 33056 ft | 531 kts | 358° |
| 2026-05-04 01:46 | 27.56901 | -78.59672 | 33053 ft | 532 kts | 358° |
| 2026-05-04 01:46 | 27.64283 | -78.58699 | 33055 ft | 533 kts | 358° |
| 2026-05-04 01:47 | 27.71655 | -78.57731 | 33061 ft | 533 kts | 358° |
| 2026-05-04 01:47 | 27.79035 | -78.56769 | 33096 ft | 536 kts | 358° |
| 2026-05-04 01:48 | 27.82762 | -78.56286 | 33350 ft | 538 kts | 358° |
| 2026-05-04 01:48 | 27.86424 | -78.55809 | 33737 ft | 537 kts | 358° |
| 2026-05-04 01:48 | 27.90139 | -78.55322 | 34099 ft | 536 kts | 357° |
| 2026-05-04 01:48 | 27.93871 | -78.54835 | 34045 ft | 539 kts | 357° |
| 2026-05-04 01:49 | 28.01301 | -78.53860 | 34062 ft | 534 kts | 357° |
| 2026-05-04 01:49 | 28.08650 | -78.52893 | 34073 ft | 532 kts | 356° |
| 2026-05-04 01:50 | 28.16005 | -78.51930 | 34079 ft | 532 kts | 356° |
| 2026-05-04 01:50 | 28.23364 | -78.50967 | 34083 ft | 533 kts | 356° |
| 2026-05-04 01:51 | 28.30751 | -78.49996 | 34085 ft | 534 kts | 356° |
| 2026-05-04 01:51 | 28.38098 | -78.49029 | 34082 ft | 535 kts | 356° |
| 2026-05-04 01:52 | 28.45505 | -78.48051 | 34088 ft | 536 kts | 356° |
| 2026-05-04 01:52 | 28.52931 | -78.47069 | 34091 ft | 537 kts | 356° |
| 2026-05-04 01:53 | 28.60358 | -78.46086 | 34096 ft | 537 kts | 356° |
| 2026-05-04 01:53 | 28.67795 | -78.45100 | 34096 ft | 537 kts | 356° |
| 2026-05-04 01:54 | 28.75184 | -78.44120 | 34100 ft | 537 kts | 356° |
| 2026-05-04 01:54 | 28.82629 | -78.43130 | 34104 ft | 537 kts | 356° |
| 2026-05-04 01:55 | 28.90046 | -78.42143 | 34108 ft | 536 kts | 356° |
| 2026-05-04 01:55 | 28.97427 | -78.41159 | 34119 ft | 536 kts | 355° |
| 2026-05-04 01:56 | 29.04850 | -78.40169 | 34110 ft | 536 kts | 355° |
| 2026-05-04 01:56 | 29.12271 | -78.39178 | 34119 ft | 536 kts | 355° |
| 2026-05-04 01:57 | 29.19686 | -78.38185 | 34127 ft | 537 kts | 355° |
| 2026-05-04 01:57 | 29.27104 | -78.37191 | 34125 ft | 537 kts | 355° |
| 2026-05-04 01:58 | 29.34543 | -78.36192 | 34127 ft | 538 kts | 356° |
| 2026-05-04 01:58 | 29.41937 | -78.35198 | 34129 ft | 538 kts | 356° |
| 2026-05-04 01:59 | 29.49358 | -78.34523 | 34116 ft | 518 kts | 342° |
| 2026-05-04 01:59 | 29.52759 | -78.35322 | 34137 ft | 490 kts | 330° |
| 2026-05-04 01:59 | 29.56020 | -78.36470 | 34133 ft | 490 kts | 329° |
| 2026-05-04 02:00 | 29.62581 | -78.38785 | 34142 ft | 495 kts | 330° |
| 2026-05-04 02:00 | 29.69181 | -78.40993 | 34142 ft | 499 kts | 331° |
| 2026-05-04 02:01 | 29.75887 | -78.43169 | 34143 ft | 502 kts | 332° |
| 2026-05-04 02:01 | 29.82620 | -78.45349 | 34133 ft | 503 kts | 332° |
| 2026-05-04 02:02 | 29.89363 | -78.47542 | 34138 ft | 502 kts | 332° |
| 2026-05-04 02:02 | 29.96044 | -78.49723 | 34143 ft | 500 kts | 332° |
| 2026-05-04 02:03 | 30.02737 | -78.51913 | 34145 ft | 499 kts | 332° |
| 2026-05-04 02:03 | 30.09400 | -78.54092 | 34148 ft | 497 kts | 333° |
| 2026-05-04 02:04 | 30.12830 | -78.54947 | 34147 ft | 509 kts | 340° |
| 2026-05-04 02:04 | 30.16396 | -78.55339 | 34153 ft | 519 kts | 346° |
| 2026-05-04 02:04 | 30.20048 | -78.55308 | 34146 ft | 530 kts | 354° |
| 2026-05-04 02:04 | 30.23737 | -78.54830 | 34157 ft | 534 kts | 358° |
| 2026-05-04 02:05 | 30.31067 | -78.53620 | 34160 ft | 534 kts | 358° |
| 2026-05-04 02:05 | 30.38412 | -78.52504 | 34155 ft | 531 kts | 357° |
| 2026-05-04 02:06 | 30.45747 | -78.51435 | 34155 ft | 530 kts | 358° |
| 2026-05-04 02:06 | 30.53074 | -78.50251 | 34162 ft | 530 kts | 358° |
| 2026-05-04 02:07 | 30.60371 | -78.49042 | 34167 ft | 529 kts | 358° |
| 2026-05-04 02:07 | 30.67610 | -78.47857 | 34168 ft | 528 kts | 358° |
| 2026-05-04 02:08 | 30.74890 | -78.46675 | 34165 ft | 527 kts | 358° |
| 2026-05-04 02:08 | 30.82150 | -78.45497 | 34161 ft | 526 kts | 358° |
| 2026-05-04 02:09 | 30.89412 | -78.44316 | 34166 ft | 525 kts | 358° |
| 2026-05-04 02:09 | 30.96657 | -78.43135 | 34170 ft | 524 kts | 358° |
| 2026-05-04 02:10 | 31.03839 | -78.41962 | 34170 ft | 524 kts | 358° |
| 2026-05-04 02:10 | 31.11077 | -78.40779 | 34170 ft | 523 kts | 358° |
| 2026-05-04 02:11 | 31.18243 | -78.39605 | 34168 ft | 523 kts | 358° |
| 2026-05-04 02:11 | 31.25453 | -78.38422 | 34169 ft | 522 kts | 359° |
| 2026-05-04 02:12 | 31.32652 | -78.37240 | 34172 ft | 522 kts | 359° |
| 2026-05-04 02:12 | 31.39852 | -78.36055 | 34180 ft | 522 kts | 359° |
| 2026-05-04 02:13 | 31.47050 | -78.34869 | 34179 ft | 521 kts | 359° |
| 2026-05-04 02:13 | 31.54191 | -78.33690 | 34174 ft | 521 kts | 359° |
| 2026-05-04 02:14 | 31.61369 | -78.32504 | 34179 ft | 520 kts | 359° |
| 2026-05-04 02:14 | 31.68549 | -78.31314 | 34178 ft | 520 kts | 359° |
| 2026-05-04 02:15 | 31.75692 | -78.30129 | 34173 ft | 520 kts | 359° |
| 2026-05-04 02:15 | 31.82854 | -78.28940 | 34175 ft | 520 kts | 359° |
| 2026-05-04 02:16 | 31.90016 | -78.27749 | 34174 ft | 520 kts | 359° |
| 2026-05-04 02:16 | 31.97184 | -78.26554 | 34178 ft | 520 kts | 359° |
| 2026-05-04 02:17 | 32.04295 | -78.25350 | 34180 ft | 521 kts | 1° |
| 2026-05-04 02:17 | 32.11466 | -78.23847 | 34180 ft | 523 kts | 2° |
| 2026-05-04 02:18 | 32.18635 | -78.22226 | 34180 ft | 523 kts | 3° |
| 2026-05-04 02:18 | 32.25761 | -78.20645 | 34180 ft | 523 kts | 2° |
| 2026-05-04 02:19 | 32.31728 | -78.19348 | 34170 ft | 523 kts | 2° |
| 2026-05-04 02:19 | 32.38892 | -78.17801 | 34176 ft | 523 kts | 2° |
| 2026-05-04 02:20 | 32.46058 | -78.16251 | 34176 ft | 523 kts | 2° |
| 2026-05-04 02:20 | 32.53224 | -78.14695 | 34183 ft | 523 kts | 2° |
| 2026-05-04 02:21 | 32.60353 | -78.13143 | 34176 ft | 523 kts | 2° |
| 2026-05-04 02:21 | 32.67515 | -78.11582 | 34171 ft | 523 kts | 2° |
| 2026-05-04 02:22 | 32.74682 | -78.10017 | 34162 ft | 523 kts | 2° |
| 2026-05-04 02:22 | 32.81847 | -78.08450 | 34171 ft | 523 kts | 2° |
| 2026-05-04 02:23 | 32.88964 | -78.06892 | 34175 ft | 523 kts | 2° |
| 2026-05-04 02:23 | 32.96041 | -78.05339 | 34175 ft | 523 kts | 2° |
| 2026-05-04 02:24 | 33.03205 | -78.03765 | 34173 ft | 523 kts | 2° |
| 2026-05-04 02:24 | 33.10370 | -78.02188 | 34174 ft | 523 kts | 2° |
| 2026-05-04 02:25 | 33.17494 | -78.00617 | 34167 ft | 523 kts | 2° |
| 2026-05-04 02:25 | 33.24657 | -77.99035 | 34164 ft | 523 kts | 2° |
| 2026-05-04 02:26 | 33.31831 | -77.97448 | 34157 ft | 523 kts | 2° |
| 2026-05-04 02:26 | 33.39004 | -77.95858 | 34157 ft | 523 kts | 2° |
| 2026-05-04 02:27 | 33.46122 | -77.94279 | 34159 ft | 523 kts | 2° |
| 2026-05-04 02:27 | 33.53292 | -77.92684 | 34156 ft | 523 kts | 2° |
| 2026-05-04 02:28 | 33.60413 | -77.91098 | 34147 ft | 523 kts | 2° |
| 2026-05-04 02:28 | 33.67577 | -77.89500 | 34158 ft | 523 kts | 2° |
| 2026-05-04 02:29 | 33.74747 | -77.87897 | 34154 ft | 523 kts | 2° |
| 2026-05-04 02:29 | 33.81859 | -77.86283 | 34156 ft | 524 kts | 3° |
| 2026-05-04 02:30 | 33.89011 | -77.84487 | 34156 ft | 524 kts | 4° |
| 2026-05-04 02:30 | 33.96153 | -77.82647 | 34153 ft | 524 kts | 4° |
| 2026-05-04 02:31 | 34.03291 | -77.80828 | 34150 ft | 524 kts | 4° |
| 2026-05-04 02:31 | 34.10384 | -77.79035 | 34144 ft | 523 kts | 4° |
| 2026-05-04 02:32 | 34.17516 | -77.77230 | 34146 ft | 523 kts | 4° |
| 2026-05-04 02:32 | 34.24636 | -77.75424 | 34149 ft | 522 kts | 3° |
| 2026-05-04 02:33 | 34.31719 | -77.73624 | 34152 ft | 522 kts | 4° |
| 2026-05-04 02:33 | 34.38837 | -77.71810 | 34153 ft | 521 kts | 4° |
| 2026-05-04 02:34 | 34.45938 | -77.69998 | 34147 ft | 520 kts | 4° |
| 2026-05-04 02:34 | 34.52978 | -77.68172 | 34139 ft | 522 kts | 6° |
| 2026-05-04 02:35 | 34.59929 | -77.65289 | 34129 ft | 534 kts | 18° |
| 2026-05-04 02:35 | 34.66568 | -77.61320 | 34141 ft | 534 kts | 20° |
| 2026-05-04 02:36 | 34.73209 | -77.57243 | 34146 ft | 533 kts | 20° |
| 2026-05-04 02:36 | 34.79840 | -77.53227 | 34153 ft | 531 kts | 19° |
| 2026-05-04 02:37 | 34.86470 | -77.49253 | 34152 ft | 530 kts | 19° |
| 2026-05-04 02:37 | 34.93105 | -77.45280 | 34138 ft | 530 kts | 19° |
| 2026-05-04 02:38 | 34.99674 | -77.41334 | 34153 ft | 529 kts | 19° |
| 2026-05-04 02:38 | 35.06281 | -77.37354 | 34142 ft | 528 kts | 20° |
| 2026-05-04 02:39 | 35.12880 | -77.33371 | 34142 ft | 528 kts | 20° |
| 2026-05-04 02:39 | 35.19471 | -77.29387 | 34138 ft | 528 kts | 20° |
| 2026-05-04 02:40 | 35.26027 | -77.25415 | 34141 ft | 528 kts | 20° |
| 2026-05-04 02:40 | 35.32619 | -77.21416 | 34141 ft | 528 kts | 20° |
| 2026-05-04 02:41 | 35.39223 | -77.17401 | 34150 ft | 528 kts | 20° |
| 2026-05-04 02:41 | 35.45779 | -77.13408 | 34162 ft | 528 kts | 20° |
| 2026-05-04 02:42 | 35.52366 | -77.09389 | 34166 ft | 528 kts | 20° |
| 2026-05-04 02:42 | 35.58950 | -77.05364 | 34166 ft | 528 kts | 20° |
| 2026-05-04 02:43 | 35.65523 | -77.01338 | 34157 ft | 527 kts | 20° |
| 2026-05-04 02:43 | 35.72044 | -76.97337 | 34151 ft | 526 kts | 20° |
| 2026-05-04 02:44 | 35.78605 | -76.93303 | 34141 ft | 526 kts | 20° |
| 2026-05-04 02:44 | 35.85158 | -76.89268 | 34133 ft | 525 kts | 20° |
| 2026-05-04 02:45 | 35.91695 | -76.85271 | 34141 ft | 522 kts | 18° |
| 2026-05-04 02:45 | 35.98323 | -76.81761 | 34149 ft | 518 kts | 15° |
| 2026-05-04 02:46 | 36.05002 | -76.78392 | 34160 ft | 517 kts | 15° |
| 2026-05-04 02:46 | 36.11622 | -76.75027 | 34155 ft | 516 kts | 15° |
| 2026-05-04 02:47 | 36.16983 | -76.72266 | 34148 ft | 515 kts | 15° |